Latest Coastal Weather Observations for Cape Leeuwin

IDW60701

Issued at 10:53 am WST Wednesday 26 July 2017 (issued every 10 minutes, with the page automatically refreshed every 10 minutes)

About coastal observations | Map of coastal stations | Coastal observations for WA | Marine services | Other Formats
Station Details ID: 009518 Name: CAPE LEEUWIN Lat: -34.37 Lon: 115.14 Height: 13.0 m
Data from the previous 72 hours. | See also: Recent months at Cape Leeuwin
Date/Time
WST
Temp
°C
Wind Pressure Rain since
9am
mm
Weather Cloud Vis
km
Sea
Height
m
Swell
Dir  Spd
kts
Gust
kts
hPa Trend Height
m
Period
s
Dir
26/10:30am 15.6 W 23 27 1014.6 - 0.4 - - - - - - -
26/10:00am 14.6 W 24 29 1014.2 - 0.4 - - - - - - -
26/09:30am 14.6 WSW 27 33 1013.9 - 0.4 - - - - - - -
26/09:00am 16.0 W 33 42 1012.9 - 7.2 - - - - - - -
26/08:55am 17.3 WNW 28 40 1012.5 - 7.2 - - - - - - -
26/08:30am 17.1 WNW 25 31 1012.3 - 7.2 - - - - - - -
26/08:00am 16.9 WNW 24 28 1012.1 - 7.2 - - - - - - -
26/07:30am 16.9 W 25 29 1011.9 - 7.2 - - - - - - -
26/07:00am 16.8 W 25 27 1011.5 - 7.2 - - - - - - -
26/06:30am 16.8 W 25 30 1010.7 - 7.2 - - - - - - -
26/06:00am 16.4 WNW 20 26 1010.9 - 7.2 Rain - - - - - -
26/05:30am 16.1 NW 24 28 1010.7 - 5.8 - - - - - - -
26/05:00am 15.2 NW 26 32 1010.9 - 5.2 - - - - - - -
26/04:30am 16.8 NW 31 38 1010.6 - 3.2 - - - - - - -
26/04:00am 17.0 NW 30 36 1010.7 - 1.8 - - - - - - -
26/03:30am 17.4 NW 29 36 1010.9 - 0.6 - - - - - - -
26/03:00am 17.4 NW 29 34 1010.9 - 0.6 Recent precip. - - - - - -
26/02:30am 16.1 NW 31 37 1011.5 - 0.6 - - - - - - -
26/02:00am 17.6 NW 32 37 1011.5 - 0.2 - - - - - - -
26/01:30am 17.7 NW 28 35 1011.9 - 0.2 - - - - - - -
26/01:00am 17.6 NW 27 34 1012.3 - 0.2 - - - - - - -
26/12:30am 17.5 NW 28 33 1012.5 - 0.2 - - - - - - -
26/12:00am 17.5 NW 28 32 1012.9 - 0.2 - - - - - - -
 
Date/Time
WST
Temp
°C
Wind Pressure Rain since
9am
mm
Weather Cloud Vis
km
Sea
Height
m
Swell
Dir  Spd
kts
Gust
kts
hPa Trend Height
m
Period
s
Dir
25/11:30pm 17.6 NW 31 37 1013.4 - 0.2 - - - - - - -
25/11:00pm 17.5 NW 30 35 1013.6 - 0.2 - - - - - - -
25/10:30pm 17.5 NW 27 32 1013.7 - 0.2 - - - - - - -
25/10:00pm 17.6 NW 29 33 1014.0 - 0.2 - - - - - - -
25/09:30pm 17.7 NW 31 36 1014.0 - 0.2 - - - - - - -
25/09:00pm 17.6 NW 30 36 1014.1 - 0.2 - - - - - - -
25/08:30pm 17.5 NW 29 37 1013.9 - 0.2 - - - - - - -
25/08:00pm 17.3 NW 31 37 1014.1 - 0.2 - - - - - - -
25/07:30pm 17.7 NW 32 38 1014.2 - 0.2 - - - - - - -
25/07:09pm 17.4 NW 31 41 1014.3 - 0.2 - - - - - - -
25/07:00pm 17.4 NW 32 40 1014.2 - 0.2 - - - - - - -
25/06:30pm 17.5 NW 31 42 1014.0 - 0.2 - - - - - - -
25/06:29pm 17.4 NW 29 42 1014.0 - 0.2 - - - - - - -
25/06:00pm 16.9 NNW 27 37 1014.3 - 0.2 - - - - - - -
25/05:30pm 17.4 NNW 28 34 1014.1 - 0.2 - - - - - - -
25/05:00pm 17.8 NNW 25 34 1014.2 - 0.2 - - - - - - -
25/04:30pm 17.9 NNW 25 32 1014.7 - 0.2 - - - - - - -
25/04:16pm 17.9 NNW 25 35 1014.8 - 0.2 - - - - - - -
25/04:00pm 17.9 NNW 25 31 1014.9 - 0.2 - - - - - - -
25/03:31pm 17.5 N 19 29 1014.7 - 0.2 - - - - - - -
25/03:30pm 17.5 N 20 29 1014.6 - 0.2 - - - - - - -
25/03:03pm 17.7 NNW 22 32 1015.0 - 0.2 - - - - - - -
25/03:00pm 17.8 NNW 24 32 1015.1 - 0.2 - - - - - - -
25/02:59pm 17.7 NNW 25 35 1015.1 - 0.2 - - - - - - -
25/02:30pm 18.1 NNW 23 29 1015.1 - 0.2 - - - - - - -
25/02:00pm 18.2 NNW 21 26 1015.3 - 0.2 - - - - - - -
25/01:30pm 18.7 NNW 20 24 1015.7 - 0.2 - - - - - - -
25/01:00pm 18.3 NNW 23 28 1016.0 - 0.0 - - - - - - -
25/12:30pm 17.9 NW 21 27 1016.2 - 0.0 - - - - - - -
25/12:00pm 17.9 NW 22 26 1017.0 - 0.0 - - - - - - -
25/11:30am 18.2 NW 22 25 1017.4 - 0.0 - - - - - - -
25/11:00am 17.4 NW 21 25 1017.7 - 0.0 - - - - - - -
25/10:30am 17.4 NW 21 25 1018.0 - 0.0 - - - - - - -
25/10:00am 16.8 NNW 16 20 1018.2 - 0.0 - - - - - - -
25/09:30am 16.2 NNW 12 13 1018.2 - 0.0 - - - - - - -
25/09:00am 15.9 NNW 11 16 1018.2 - 2.4 - - - - - - -
25/08:30am 16.1 NNW 12 17 1018.0 - 2.4 - - - - - - -
25/08:00am 14.6 N 9 11 1017.9 - 2.4 - - - - - - -
25/07:30am 15.0 NNW 12 16 1017.9 - 2.4 - - - - - - -
25/07:00am 15.7 WNW 15 18 1017.8 - 2.4 - - - - - - -
25/06:30am 15.7 WNW 15 18 1017.8 - 2.4 - - - - - - -
25/06:00am 15.6 WNW 15 17 1017.3 - 2.4 - - - - - - -
25/05:30am 15.4 WNW 13 15 1017.3 - 2.4 - - - - - - -
25/05:00am 15.5 WNW 13 16 1017.5 - 2.4 - - - - - - -
25/04:30am 15.4 WNW 14 17 1017.6 - 2.4 - - - - - - -
25/04:00am 15.4 WNW 13 17 1017.4 - 2.4 - - - - - - -
25/03:30am 15.6 WNW 13 15 1017.5 - 2.4 - - - - - - -
25/03:00am 15.5 WNW 13 16 1017.7 - 2.4 - - - - - - -
25/02:30am 15.5 WNW 13 16 1017.5 - 2.4 - - - - - - -
25/02:00am 15.5 WNW 13 16 1017.5 - 2.4 - - - - - - -
25/01:30am 15.4 WNW 12 15 1017.6 - 2.4 - - - - - - -
25/01:00am 15.5 WNW 11 14 1017.7 - 2.4 - - - - - - -
25/12:30am 15.2 W 12 15 1017.8 - 2.4 - - - - - - -
25/12:00am 15.4 WNW 14 21 1017.9 - 2.4 - - - - - - -
 
Date/Time
WST
Temp
°C
Wind Pressure Rain since
9am
mm
Weather Cloud Vis
km
Sea
Height
m
Swell
Dir  Spd
kts
Gust
kts
hPa Trend Height
m
Period
s
Dir
24/11:30pm 15.7 WNW 15 18 1017.9 - 2.4 - - - - - - -
24/11:00pm 15.5 WNW 15 21 1017.9 - 2.4 - - - - - - -
24/10:30pm 15.6 W 15 18 1017.9 - 2.4 - - - - - - -
24/10:00pm 15.6 WNW 15 17 1017.9 - 2.4 - - - - - - -
24/09:30pm 15.3 W 14 17 1018.0 - 2.4 - - - - - - -
24/09:07pm 15.5 W 16 26 1017.9 - 2.4 - - - - - - -
24/09:00pm 15.7 WNW 16 18 1018.0 - 2.4 - - - - - - -
24/08:30pm 15.2 W 16 20 1017.9 - 2.4 - - - - - - -
24/08:00pm 15.3 WSW 15 20 1017.8 - 2.4 - - - - - - -
24/07:30pm 15.5 WNW 16 20 1017.6 - 2.4 - - - - - - -
24/07:00pm 15.7 WNW 17 20 1017.5 - 2.4 - - - - - - -
24/06:30pm 15.7 W 17 19 1017.3 - 2.4 - - - - - - -
24/06:00pm 15.4 W 15 19 1017.0 - 2.4 - - - - - - -
24/05:30pm 15.3 W 17 20 1016.9 - 2.4 - - - - - - -
24/05:00pm 15.1 W 21 25 1016.7 - 2.4 - - - - - - -
24/04:30pm 15.5 W 20 24 1016.5 - 2.4 - - - - - - -
24/04:00pm 15.8 W 19 23 1016.3 - 2.4 - - - - - - -
24/03:30pm 15.4 W 19 23 1016.1 - 2.4 - - - - - - -
24/03:00pm 15.4 WNW 20 25 1015.9 - 2.4 - - - - - - -
24/02:30pm 14.9 WNW 16 19 1016.0 - 2.4 - - - - - - -
24/02:00pm 13.8 W 18 21 1016.2 - 2.4 - - - - - - -
24/01:30pm 13.7 WNW 21 27 1016.2 - 2.0 - - - - - - -
24/01:27pm 13.9 WNW 21 24 1016.2 - 2.0 - - - - - - -
24/01:15pm 13.5 NW 17 24 1016.3 - 2.0 - - - - - - -
24/01:00pm 12.7 NNW 10 15 1016.5 - 1.6 - - - - - - -
24/12:30pm 12.8 N 13 15 1016.9 - 0.4 - - - - - - -
24/12:00pm 14.9 WSW 9 11 1017.1 - 0.0 - - - - - - -
24/11:30am 15.6 W 11 14 1017.5 - 0.0 - - - - - - -
24/11:00am 15.2 NW 10 13 1017.8 - 0.0 - - - - - - -
24/10:30am 15.1 WNW 13 17 1017.8 - 0.0 - - - - - - -
24/10:00am 15.2 W 14 18 1017.8 - 0.0 - - - - - - -
24/09:30am 14.9 WNW 12 15 1017.9 - 0.0 - - - - - - -
24/09:00am 13.6 W 15 21 1017.9 - 2.6 - - - - - - -
24/08:45am 14.6 W 16 26 1017.7 - 2.6 - - - - - - -
24/08:30am 14.7 W 16 19 1017.6 - 2.6 - - - - - - -
24/08:00am 14.3 WSW 16 21 1017.4 - 2.6 - - - - - - -
24/07:30am 14.1 W 18 21 1017.2 - 2.6 - - - - - - -
24/07:00am 14.0 W 18 22 1016.9 - 2.6 - - - - - - -
24/06:30am 14.0 W 19 24 1016.6 - 2.6 - - - - - - -
24/06:00am 14.0 W 17 21 1016.4 - 2.6 - - - - - - -
24/05:30am 14.1 W 17 21 1015.9 - 2.6 - - - - - - -
24/05:00am 13.9 W 17 21 1015.8 - 2.6 - - - - - - -
24/04:30am 14.2 W 18 23 1015.6 - 2.6 - - - - - - -
24/04:00am 14.0 W 19 22 1015.5 - 2.6 - - - - - - -
24/03:30am 14.1 W 17 22 1015.3 - 2.6 - - - - - - -
24/03:00am 13.7 WSW 19 22 1015.4 - 2.6 Recent precip. - - - - - -
24/02:30am 13.6 WSW 21 25 1015.6 - 2.6 - - - - - - -
24/02:09am 13.8 W 22 32 1015.6 - 2.2 - - - - - - -
24/02:00am 13.8 W 23 29 1015.7 - 2.2 - - - - - - -
24/01:51am 13.9 WSW 19 29 1015.6 - 2.2 - - - - - - -
24/01:30am 13.3 WSW 22 26 1015.7 - 2.2 - - - - - - -
24/01:00am 14.0 W 21 27 1015.6 - 2.0 - - - - - - -
24/12:30am 13.6 WSW 19 24 1015.7 - 2.0 - - - - - - -
24/12:00am 13.1 W 19 29 1015.9 - 1.0 Rain - - - - - -
 
Date/Time
WST
Temp
°C
Wind Pressure Rain since
9am
mm
Weather Cloud Vis
km
Sea
Height
m
Swell
Dir  Spd
kts
Gust
kts
hPa Trend Height
m
Period
s
Dir
23/11:30pm 13.3 W 24 28 1015.9 - 0.4 - - - - - - -
23/11:00pm 14.3 WSW 20 24 1015.8 - 0.4 - - - - - - -
23/10:31pm 13.8 W 20 30 1015.9 - 0.4 - - - - - - -
23/10:30pm 13.5 W 21 30 1015.9 - 0.4 - - - - - - -
23/10:00pm 14.2 WSW 22 25 1015.8 - 0.4 - - - - - - -
23/09:30pm 14.1 W 21 27 1015.7 - 0.4 - - - - - - -
23/09:00pm 14.3 W 23 27 1015.6 - 0.4 Recent precip. - - - - - -
23/08:30pm 13.3 W 19 27 1015.6 - 0.4 - - - - - - -
23/08:28pm 13.0 W 21 31 1015.6 - 0.4 - - - - - - -
23/08:00pm 14.5 W 25 31 1015.1 - 0.2 - - - - - - -
23/07:30pm 14.5 W 26 30 1014.8 - 0.2 - - - - - - -
23/07:00pm 14.7 W 25 30 1014.6 - 0.2 - - - - - - -
23/06:30pm 15.5 W 24 28 1014.3 - 0.2 - - - - - - -
23/06:00pm 15.2 W 23 28 1013.9 - 0.2 - - - - - - -
23/05:30pm 15.1 W 25 28 1013.7 - 0.2 - - - - - - -
23/05:00pm 15.0 W 24 31 1013.6 - 0.2 - - - - - - -
23/04:30pm 15.4 W 26 32 1013.5 - 0.2 - - - - - - -
23/04:00pm 15.6 W 26 31 1013.2 - 0.2 - - - - - - -
23/03:30pm 15.6 W 28 34 1013.0 - 0.2 - - - - - - -
23/03:00pm 15.9 W 25 29 1012.9 - 0.2 - - - - - - -
23/02:30pm 16.4 W 26 32 1012.8 - 0.2 - - - - - - -
23/02:00pm 16.4 W 27 32 1012.9 - 0.2 - - - - - - -
23/01:30pm 16.0 W 25 32 1013.0 - 0.0 - - - - - - -
23/01:00pm 15.9 W 27 32 1013.3 - 0.0 - - - - - - -
23/12:30pm 15.6 W 27 31 1013.5 - 0.0 - - - - - - -
23/12:00pm 15.5 W 25 29 1013.6 - 0.0 - - - - - - -
23/11:30am 16.0 W 24 30 1014.0 - 0.0 - - - - - - -
23/11:00am 15.6 W 26 31 1014.1 - 0.0 - - - - - - -

Other Formats:

Comma delimited format used in spreadsheet applications
http://www.bom.gov.au/fwo/IDW60701/IDW60701.94601.axf

JavaScript Object Notation format (JSON) in row-major order
http://www.bom.gov.au/fwo/IDW60701/IDW60701.94601.json